createdAt,value
2018-12-14T00:01:05.094Z,1.16
2018-12-14T00:03:32.520Z,1.07
2018-12-14T00:05:59.947Z,1.09
2018-12-14T00:08:27.480Z,1.09
2018-12-14T00:10:54.907Z,1.16
2018-12-14T00:13:22.359Z,1.15
2018-12-14T00:15:50.242Z,1.12
2018-12-14T00:18:17.720Z,1.15
2018-12-14T00:20:45.193Z,1.14
2018-12-14T00:23:12.681Z,1.14
2018-12-14T00:25:40.919Z,1.09
2018-12-14T00:28:08.360Z,1.05
2018-12-14T00:30:36.153Z,1.09
2018-12-14T00:33:03.578Z,1.06
2018-12-14T00:35:31.259Z,1.05
2018-12-14T00:37:58.691Z,1.08
2018-12-14T00:40:26.175Z,1.08
2018-12-14T00:42:53.693Z,1.10
2018-12-14T00:45:21.123Z,1.11
2018-12-14T00:47:48.648Z,1.12
2018-12-14T00:50:16.093Z,1.15
2018-12-14T00:52:43.578Z,1.15
2018-12-14T00:55:11.022Z,1.22
2018-12-14T00:57:38.443Z,1.19
2018-12-14T01:00:05.881Z,1.16
2018-12-14T01:02:33.315Z,1.35
2018-12-14T01:05:00.760Z,1.37
2018-12-14T01:07:28.187Z,1.31
2018-12-14T01:09:55.616Z,1.30
2018-12-14T01:12:23.035Z,1.48
2018-12-14T01:14:50.463Z,1.38
2018-12-14T01:17:17.931Z,1.43
2018-12-14T01:19:45.368Z,1.42
2018-12-14T01:22:12.786Z,1.56
2018-12-14T01:24:40.220Z,1.39
2018-12-14T01:27:07.656Z,1.50
2018-12-14T01:29:35.122Z,1.44
2018-12-14T01:32:02.567Z,1.44
2018-12-14T01:34:30.084Z,1.42
2018-12-14T01:36:57.504Z,1.40
2018-12-14T01:39:24.933Z,1.42
2018-12-14T01:41:52.351Z,1.40
2018-12-14T01:44:19.795Z,1.33
2018-12-14T01:46:47.225Z,1.46
2018-12-14T01:49:14.675Z,1.43
2018-12-14T01:51:42.099Z,1.42
2018-12-14T01:54:09.527Z,1.38
2018-12-14T01:56:36.955Z,1.40
2018-12-14T01:59:04.389Z,1.45
2018-12-14T02:01:32.179Z,1.44
2018-12-14T02:03:59.603Z,1.52
2018-12-14T02:06:27.085Z,1.43
2018-12-14T02:08:54.515Z,1.42
2018-12-14T02:11:21.999Z,1.43
2018-12-14T02:13:49.432Z,1.46
2018-12-14T02:16:16.856Z,1.39
2018-12-14T02:18:44.283Z,1.34
2018-12-14T02:21:11.717Z,1.37
2018-12-14T02:23:39.148Z,1.29
2018-12-14T02:26:06.651Z,1.33
2018-12-14T02:28:34.087Z,1.38
2018-12-14T02:31:01.519Z,1.38
2018-12-14T02:33:28.944Z,1.36
2018-12-14T02:35:56.371Z,1.33
2018-12-14T02:38:23.792Z,1.31
2018-12-14T02:40:51.291Z,1.27
2018-12-14T02:43:20.163Z,1.32
2018-12-14T02:45:47.606Z,1.19
2018-12-14T02:48:15.028Z,1.18
2018-12-14T02:50:42.539Z,1.31
2018-12-14T02:53:09.959Z,1.22
2018-12-14T02:55:37.393Z,1.19
2018-12-14T02:58:04.820Z,1.13
2018-12-14T03:00:32.253Z,1.15
2018-12-14T03:03:00.302Z,1.08
2018-12-14T03:05:27.745Z,1.13
2018-12-14T03:07:55.172Z,1.12
2018-12-14T03:10:22.617Z,1.11
2018-12-14T03:12:50.055Z,1.12
2018-12-14T03:15:17.480Z,1.17
2018-12-14T03:17:44.906Z,1.08
2018-12-14T03:20:12.327Z,1.19
2018-12-14T03:22:39.880Z,1.27
2018-12-14T03:25:07.326Z,1.37
2018-12-14T03:27:34.821Z,1.28
2018-12-14T03:30:02.256Z,1.16
2018-12-14T03:32:29.684Z,1.31
2018-12-14T03:34:57.194Z,1.20
2018-12-14T03:37:24.656Z,1.09
2018-12-14T03:39:52.152Z,1.14
2018-12-14T03:42:19.590Z,1.13
2018-12-14T03:44:47.030Z,1.10
2018-12-14T03:47:14.453Z,1.02
2018-12-14T03:49:41.875Z,1.06
2018-12-14T03:52:09.402Z,1.04
2018-12-14T03:54:36.967Z,1.12
2018-12-14T03:57:04.388Z,1.16
2018-12-14T03:59:31.836Z,1.03
2018-12-14T04:01:59.277Z,1.06
2018-12-14T04:04:26.690Z,1.05
2018-12-14T04:06:54.124Z,1.08
2018-12-14T04:09:21.613Z,1.08
2018-12-14T04:11:49.048Z,0.96
2018-12-14T04:14:16.517Z,1.02
2018-12-14T04:16:43.950Z,1.05
2018-12-14T04:19:11.395Z,0.99
2018-12-14T04:21:38.914Z,0.91
2018-12-14T04:24:06.946Z,1.04
2018-12-14T04:26:34.383Z,0.89
2018-12-14T04:29:01.883Z,0.85
2018-12-14T04:31:29.318Z,0.96
2018-12-14T04:33:56.741Z,0.99
2018-12-14T04:36:24.255Z,1.06
2018-12-14T04:38:51.680Z,0.97
2018-12-14T04:41:19.160Z,0.94
2018-12-14T04:43:46.592Z,0.91
2018-12-14T04:46:14.078Z,0.87
2018-12-14T04:48:41.512Z,0.90
2018-12-14T04:51:08.955Z,0.87
2018-12-14T04:53:36.375Z,0.98
2018-12-14T04:56:03.802Z,1.02
2018-12-14T04:58:31.241Z,0.91
2018-12-14T05:00:58.730Z,0.81
2018-12-14T05:03:26.184Z,0.93
2018-12-14T05:05:53.641Z,0.94
2018-12-14T05:08:21.087Z,0.86
2018-12-14T05:10:48.518Z,0.94
2018-12-14T05:13:15.939Z,1.09
2018-12-14T05:15:43.379Z,1.05
2018-12-14T05:18:10.827Z,0.95
2018-12-14T05:20:38.264Z,0.90
2018-12-14T05:23:05.684Z,0.87
2018-12-14T05:25:33.205Z,0.93
2018-12-14T05:28:00.641Z,0.88
2018-12-14T05:30:28.116Z,0.91
2018-12-14T05:32:55.553Z,0.95
2018-12-14T05:35:23.021Z,0.88
2018-12-14T05:37:50.511Z,0.89
2018-12-14T05:40:17.948Z,0.98
2018-12-14T05:42:45.403Z,0.96
2018-12-14T05:45:12.857Z,0.86
2018-12-14T05:47:40.291Z,0.85
2018-12-14T05:50:07.708Z,0.86
2018-12-14T05:52:35.145Z,0.92
2018-12-14T05:55:02.585Z,0.88
2018-12-14T05:57:30.040Z,0.92
2018-12-14T05:59:57.462Z,0.88
2018-12-14T06:02:24.942Z,0.92
2018-12-14T06:04:52.360Z,0.87
2018-12-14T06:07:19.795Z,0.95
2018-12-14T06:09:47.214Z,1.01
2018-12-14T06:12:14.913Z,0.99
2018-12-14T06:14:42.460Z,0.99
2018-12-14T06:17:09.903Z,0.99
2018-12-14T06:19:37.888Z,0.97
2018-12-14T06:22:05.324Z,0.94
2018-12-14T06:24:33.266Z,0.93
2018-12-14T06:27:00.695Z,0.97
2018-12-14T06:29:28.123Z,1.06
2018-12-14T06:31:55.575Z,0.93
2018-12-14T06:34:23.003Z,0.93
2018-12-14T06:36:51.083Z,0.95
2018-12-14T06:39:18.754Z,0.86
2018-12-14T06:41:46.508Z,1.00
2018-12-14T06:44:14.314Z,0.96
2018-12-14T06:46:41.739Z,0.96
2018-12-14T06:49:09.166Z,0.91
2018-12-14T06:51:37.556Z,0.91
2018-12-14T06:54:05.212Z,0.90
2018-12-14T06:56:32.628Z,1.00
2018-12-14T06:59:00.051Z,1.00
2018-12-14T07:01:27.484Z,1.07
2018-12-14T07:03:54.907Z,1.09
2018-12-14T07:06:22.374Z,1.11
2018-12-14T07:08:49.808Z,1.22
2018-12-14T07:11:17.242Z,1.13
2018-12-14T07:13:44.663Z,1.05
2018-12-14T07:16:12.082Z,0.99
2018-12-14T07:18:39.507Z,1.06
2018-12-14T07:21:06.947Z,0.87
2018-12-14T07:23:34.414Z,0.86
2018-12-14T07:26:01.851Z,0.91
2018-12-14T07:28:29.287Z,0.83
2018-12-14T07:30:56.711Z,0.94
2018-12-14T07:33:24.140Z,0.97
2018-12-14T07:35:51.567Z,1.19
2018-12-14T07:38:19.007Z,1.21
2018-12-14T07:40:46.445Z,1.30
2018-12-14T07:43:13.867Z,1.25
2018-12-14T07:45:41.295Z,1.21
2018-12-14T07:48:08.802Z,1.20
2018-12-14T07:50:36.225Z,1.17
2018-12-14T07:53:09.120Z,1.21
2018-12-14T07:55:33.130Z,1.28
2018-12-14T07:58:00.566Z,1.24
2018-12-14T08:00:27.987Z,1.31
2018-12-14T08:02:55.494Z,1.32
2018-12-14T08:05:23.082Z,1.31
2018-12-14T08:07:50.526Z,1.29
2018-12-14T08:10:18.014Z,1.34
2018-12-14T08:12:45.487Z,1.35
2018-12-14T08:15:13.151Z,1.34
2018-12-14T08:17:40.599Z,1.30
2018-12-14T08:20:08.040Z,1.34
2018-12-14T08:22:35.466Z,1.49
2018-12-14T08:25:02.885Z,1.56
2018-12-14T08:27:30.386Z,1.38
2018-12-14T08:29:57.803Z,1.42
2018-12-14T08:32:25.244Z,1.46
2018-12-14T08:34:52.679Z,1.43
2018-12-14T08:37:20.118Z,1.53
2018-12-14T08:39:47.554Z,1.46
2018-12-14T08:42:15.112Z,1.40
2018-12-14T08:44:42.545Z,1.40
2018-12-14T08:47:10.040Z,1.48
2018-12-14T08:49:37.479Z,1.43
2018-12-14T08:52:04.972Z,1.37
2018-12-14T08:54:32.412Z,1.46
2018-12-14T08:56:59.849Z,1.52
2018-12-14T08:59:27.276Z,1.46
2018-12-14T09:01:54.717Z,1.46
2018-12-14T09:04:22.145Z,1.49
2018-12-14T09:06:49.603Z,1.55
2018-12-14T09:09:17.023Z,1.55
2018-12-14T09:11:44.451Z,1.54
2018-12-14T09:14:11.895Z,1.59
2018-12-14T09:16:39.333Z,1.66
2018-12-14T09:19:07.798Z,1.71
2018-12-14T09:21:35.263Z,1.70
2018-12-14T09:24:02.723Z,1.63
2018-12-14T09:26:30.156Z,1.67
2018-12-14T09:28:57.926Z,1.79
2018-12-14T09:31:25.500Z,1.81
2018-12-14T09:33:52.935Z,1.89
2018-12-14T09:36:20.372Z,1.75
2018-12-14T09:38:47.808Z,1.85
2018-12-14T09:41:16.332Z,1.92
2018-12-14T09:43:43.944Z,1.90
2018-12-14T09:46:11.375Z,1.97
2018-12-14T09:48:38.811Z,1.99
2018-12-14T09:51:12.161Z,1.91
2018-12-14T09:53:35.644Z,1.94
2018-12-14T09:56:03.161Z,1.93
2018-12-14T09:58:30.612Z,2.11
2018-12-14T10:00:58.047Z,2.20
2018-12-14T10:03:25.489Z,2.20
2018-12-14T10:05:52.911Z,2.09
2018-12-14T10:08:20.382Z,2.16
2018-12-14T10:10:48.051Z,2.14
2018-12-14T10:13:15.736Z,2.04
2018-12-14T10:15:43.171Z,2.20
2018-12-14T10:18:10.599Z,2.32
2018-12-14T10:20:38.036Z,2.38
2018-12-14T10:23:05.500Z,2.47
2018-12-14T10:25:32.918Z,2.38
2018-12-14T10:28:00.370Z,2.49
2018-12-14T10:30:28.491Z,2.43
2018-12-14T10:32:56.044Z,2.36
2018-12-14T10:35:23.479Z,2.24
2018-12-14T10:37:50.911Z,2.25
2018-12-14T10:40:18.415Z,2.36
2018-12-14T10:42:45.885Z,2.32
2018-12-14T10:45:13.327Z,2.29
2018-12-14T10:47:40.792Z,2.27
2018-12-14T10:50:08.227Z,2.34
2018-12-14T10:52:35.811Z,2.23
2018-12-14T10:55:03.247Z,2.33
2018-12-14T10:57:30.807Z,2.32
2018-12-14T10:59:58.247Z,2.39
2018-12-14T11:02:25.739Z,2.41
2018-12-14T11:04:53.172Z,2.61
2018-12-14T14:01:19.704Z,1.76
2018-12-14T14:03:47.273Z,1.87
2018-12-14T14:06:14.706Z,1.92
2018-12-14T14:08:42.147Z,1.96
2018-12-14T14:11:09.604Z,1.95
2018-12-14T14:13:37.046Z,2.01
2018-12-14T14:16:04.559Z,1.97
2018-12-14T14:18:31.993Z,2.03
2018-12-14T14:20:59.461Z,2.05
2018-12-14T14:23:26.892Z,1.95
2018-12-14T14:25:54.352Z,1.96
2018-12-14T14:28:22.107Z,2.02
2018-12-14T14:30:49.548Z,2.01
2018-12-14T14:33:16.988Z,2.02
2018-12-14T14:35:44.418Z,1.98
2018-12-14T14:38:11.844Z,2.05
2018-12-14T14:40:39.277Z,2.16
2018-12-14T14:43:06.716Z,1.99
2018-12-14T14:45:34.152Z,1.94
2018-12-14T14:48:01.686Z,2.02
2018-12-14T14:50:29.100Z,1.92
2018-12-14T14:52:56.533Z,2.01
2018-12-14T14:55:23.968Z,1.96
2018-12-14T14:57:51.766Z,1.96
2018-12-14T15:00:19.201Z,1.81
2018-12-14T15:02:46.640Z,1.86
2018-12-14T15:05:14.084Z,1.96
2018-12-14T15:07:41.561Z,1.94
2018-12-14T15:10:09.002Z,1.83
2018-12-14T15:12:36.471Z,1.88
2018-12-14T15:15:06.765Z,1.76
2018-12-14T15:17:33.313Z,1.87
2018-12-14T15:20:00.758Z,1.77
2018-12-14T15:22:28.176Z,1.72
2018-12-14T15:24:55.604Z,1.74
2018-12-14T15:27:23.040Z,1.81
2018-12-14T15:29:50.476Z,1.76
2018-12-14T15:32:18.456Z,1.79
2018-12-14T15:34:45.892Z,1.75
2018-12-14T15:37:13.322Z,1.85
2018-12-14T15:39:40.755Z,1.62
2018-12-14T15:42:08.209Z,1.86
2018-12-14T15:44:35.712Z,1.86
2018-12-14T15:47:03.193Z,1.70
2018-12-14T15:49:30.631Z,1.68
2018-12-14T15:51:58.082Z,1.70
2018-12-14T15:54:25.515Z,1.66
2018-12-14T15:56:52.940Z,1.72
2018-12-14T15:59:21.091Z,1.58
2018-12-14T16:01:48.801Z,1.64
2018-12-14T16:04:16.250Z,1.55
2018-12-14T16:06:43.692Z,1.62
2018-12-14T16:09:11.129Z,1.74
2018-12-14T16:11:38.572Z,1.57
2018-12-14T16:14:06.248Z,1.53
2018-12-14T16:16:33.689Z,1.49
2018-12-14T16:19:01.194Z,1.52
2018-12-14T16:21:28.649Z,1.55
2018-12-14T16:23:56.085Z,1.66
2018-12-14T16:26:23.516Z,1.76
2018-12-14T16:28:51.002Z,1.56
2018-12-14T16:31:18.473Z,1.66
2018-12-14T16:33:45.908Z,1.66
2018-12-14T16:36:13.463Z,1.60
2018-12-14T16:38:40.899Z,1.50
2018-12-14T16:41:08.325Z,1.55
2018-12-14T16:43:35.766Z,1.58
2018-12-14T16:46:03.208Z,1.70
2018-12-14T16:48:30.658Z,1.65
2018-12-14T16:50:58.092Z,1.59
2018-12-14T16:53:25.519Z,1.73
2018-12-14T16:55:52.961Z,1.67
2018-12-14T16:58:20.470Z,1.53
2018-12-14T17:00:47.927Z,1.52
2018-12-14T17:03:15.368Z,1.37
2018-12-14T17:05:42.809Z,1.40
2018-12-14T17:08:10.288Z,1.42
2018-12-14T17:10:37.724Z,1.52
2018-12-14T17:13:05.158Z,1.48
2018-12-14T17:15:33.387Z,1.59
2018-12-14T17:18:01.215Z,1.54
2018-12-14T17:20:28.665Z,1.44
2018-12-14T17:22:56.103Z,1.54
2018-12-14T17:25:23.525Z,1.50
2018-12-14T17:27:50.962Z,1.46
2018-12-14T17:30:18.393Z,1.45
2018-12-14T17:32:45.836Z,1.54
2018-12-14T17:35:13.272Z,1.60
2018-12-14T17:37:40.702Z,1.53
2018-12-14T17:40:08.144Z,1.44
2018-12-14T17:42:35.590Z,1.50
2018-12-14T17:45:03.033Z,1.51
2018-12-14T17:47:30.468Z,1.57
2018-12-14T17:49:57.908Z,1.46
2018-12-14T17:52:25.425Z,1.45
2018-12-14T17:54:52.874Z,1.46
2018-12-14T17:57:20.312Z,1.39
2018-12-14T17:59:47.745Z,1.39
2018-12-14T18:02:15.223Z,1.44
2018-12-14T18:04:42.707Z,1.52
2018-12-14T18:07:10.142Z,1.48
2018-12-14T18:09:37.568Z,1.41
2018-12-14T18:12:05.045Z,1.30
2018-12-14T18:14:32.485Z,1.35
2018-12-14T18:16:59.937Z,1.34
2018-12-14T18:19:27.380Z,1.38
2018-12-14T18:21:54.812Z,1.42
2018-12-14T18:24:22.242Z,1.47
2018-12-14T18:26:49.675Z,1.52
2018-12-14T18:29:17.113Z,1.42
2018-12-14T18:31:44.546Z,1.47
2018-12-14T18:34:11.997Z,1.60
2018-12-14T18:36:39.437Z,1.52
2018-12-14T18:39:06.872Z,1.61
2018-12-14T18:41:34.316Z,1.37
2018-12-14T18:44:01.914Z,1.37
2018-12-14T18:46:29.318Z,1.45
2018-12-14T18:48:56.749Z,1.50
2018-12-14T18:51:24.190Z,1.46
2018-12-14T18:53:56.236Z,1.44
2018-12-14T18:56:23.809Z,1.49
2018-12-14T18:58:51.318Z,1.50
2018-12-14T19:01:18.790Z,1.52
2018-12-14T19:03:46.226Z,1.51
2018-12-14T19:06:13.665Z,1.44
2018-12-14T19:08:41.100Z,1.49
2018-12-14T19:11:08.528Z,1.50
2018-12-14T19:13:35.969Z,1.46
2018-12-14T19:16:03.402Z,1.45
2018-12-14T19:18:30.843Z,1.49
2018-12-14T19:20:58.285Z,1.47
2018-12-14T19:23:25.737Z,1.42
2018-12-14T19:25:53.240Z,1.33
2018-12-14T19:28:20.687Z,1.44
2018-12-14T19:30:48.121Z,1.47
2018-12-14T19:33:15.565Z,1.47
2018-12-14T19:35:43.017Z,1.61
2018-12-14T19:38:10.526Z,1.47
2018-12-14T19:40:37.950Z,1.48
2018-12-14T19:43:05.414Z,1.48
2018-12-14T19:45:32.857Z,1.50
2018-12-14T19:48:00.288Z,1.39
2018-12-14T19:50:27.725Z,1.38
2018-12-14T19:52:55.162Z,1.40
2018-12-14T19:55:22.600Z,1.43
2018-12-14T19:57:50.033Z,1.39
2018-12-14T20:00:17.459Z,1.30
2018-12-14T20:02:44.905Z,1.31
2018-12-14T20:05:12.347Z,1.28
2018-12-14T20:07:39.781Z,1.28
2018-12-14T20:10:07.212Z,1.35
2018-12-14T20:12:34.652Z,1.30
2018-12-14T20:15:02.161Z,1.35
2018-12-14T20:17:29.617Z,1.44
2018-12-14T20:19:57.122Z,1.40
2018-12-14T20:24:58.657Z,1.37
2018-12-14T20:27:26.101Z,1.32
2018-12-14T20:29:53.557Z,1.30
2018-12-14T20:32:21.016Z,1.28
2018-12-14T20:34:48.449Z,1.24
2018-12-14T20:37:15.902Z,1.23
2018-12-14T20:39:43.334Z,1.31
2018-12-14T20:42:10.787Z,1.23
2018-12-14T20:44:38.224Z,1.20
2018-12-14T20:47:05.649Z,1.31
2018-12-14T20:49:33.101Z,1.24
2018-12-14T20:52:00.540Z,1.28
2018-12-14T20:54:28.060Z,1.26
2018-12-14T20:56:55.522Z,1.18
2018-12-14T20:59:22.952Z,1.19
2018-12-14T21:01:50.396Z,1.24
2018-12-14T21:04:17.850Z,1.17
2018-12-14T21:06:45.300Z,1.14
2018-12-14T21:09:12.756Z,1.15
2018-12-14T21:11:40.245Z,1.14
2018-12-14T21:14:07.693Z,1.14
2018-12-14T21:16:35.130Z,1.13
2018-12-14T21:19:02.584Z,1.07
2018-12-14T21:21:30.074Z,1.18
2018-12-14T21:23:57.549Z,1.11
2018-12-14T21:26:24.978Z,1.16
2018-12-14T21:28:52.444Z,1.16
2018-12-14T21:31:19.877Z,1.10
2018-12-14T21:33:47.313Z,1.13
2018-12-14T21:36:14.752Z,0.99
2018-12-14T21:38:42.192Z,1.00
2018-12-14T21:41:09.641Z,1.05
2018-12-14T21:43:37.082Z,0.99
2018-12-14T21:46:04.525Z,0.97
2018-12-14T21:48:31.982Z,0.96
2018-12-14T21:50:59.429Z,0.95
2018-12-14T21:53:26.873Z,0.92
2018-12-14T21:55:54.307Z,0.93
2018-12-14T21:58:21.748Z,0.90
2018-12-14T22:00:49.264Z,0.85
2018-12-14T22:03:16.706Z,0.85
2018-12-14T22:05:44.143Z,0.90
2018-12-14T22:08:11.581Z,0.91
2018-12-14T22:10:39.018Z,0.96
2018-12-14T22:13:06.449Z,0.93
2018-12-14T22:15:33.885Z,0.89
2018-12-14T22:18:01.345Z,0.88
2018-12-14T22:20:28.777Z,0.94
2018-12-14T22:22:56.221Z,0.89
2018-12-14T22:25:23.685Z,0.82
2018-12-14T22:27:52.189Z,0.80
2018-12-14T22:30:19.757Z,0.80
2018-12-14T22:32:47.209Z,0.76
2018-12-14T22:35:14.680Z,0.77
2018-12-14T22:37:42.117Z,0.72
2018-12-14T22:40:09.560Z,0.76
2018-12-14T22:42:36.994Z,0.83
2018-12-14T22:45:04.436Z,0.80
2018-12-14T22:47:31.881Z,0.79
2018-12-14T22:49:59.330Z,0.82
2018-12-14T22:52:26.769Z,0.87
2018-12-14T22:54:54.350Z,0.80
2018-12-14T22:57:21.790Z,0.82
2018-12-14T22:59:49.226Z,0.74
2018-12-14T23:02:16.652Z,0.76
2018-12-14T23:04:44.115Z,0.82
2018-12-14T23:07:11.557Z,0.73
2018-12-14T23:09:38.998Z,0.75
2018-12-14T23:12:06.436Z,0.70
2018-12-14T23:14:33.935Z,0.75
2018-12-14T23:17:01.397Z,0.73
2018-12-14T23:19:28.834Z,0.68
2018-12-14T23:21:56.264Z,0.63
2018-12-14T23:24:23.698Z,0.73
2018-12-14T23:26:51.184Z,0.84
2018-12-14T23:29:18.635Z,0.75
2018-12-14T23:31:46.065Z,0.76
2018-12-14T23:34:13.500Z,0.65
2018-12-14T23:36:40.942Z,0.73
2018-12-14T23:39:08.385Z,0.75
2018-12-14T23:41:35.825Z,0.67
2018-12-14T23:44:03.256Z,0.72
2018-12-14T23:46:30.689Z,0.79
2018-12-14T23:48:58.137Z,0.69
2018-12-14T23:51:25.572Z,0.68
2018-12-14T23:53:53.031Z,0.67
2018-12-14T23:56:20.464Z,0.66
2018-12-14T23:58:47.901Z,0.67
